Time;durP1;ratioP1;P1;durP2;ratioP2;P2;SDS_P1;SDS_P2;PMS_P1;PMS_P2;Temp;Humidity;BMP_temperature;BMP_pressure;BME280_temperature;BME280_humidity;BME280_pressure;Samples;Min_cycle;Max_cycle;Signal;HPM_P1;HPM_P2
2023/09/17 00:00:09;;;;;;;11.97;8.13;;;;;;;16.65;100.00;100735.79;1424973;91;22308;-95
2023/09/17 00:02:37;;;;;;;10.93;7.37;;;;;;;16.69;100.00;100737.11;1431791;91;21411;-94
2023/09/17 00:05:04;;;;;;;12.37;6.87;;;;;;;16.69;100.00;100734.44;1399139;91;22427;-93
2023/09/17 00:07:30;;;;;;;14.63;8.03;;;;;;;16.66;100.00;100730.79;1432230;91;21899;-94
2023/09/17 00:09:57;;;;;;;12.83;7.23;;;;;;;16.67;100.00;100725.77;1417401;91;21427;-93
2023/09/17 00:12:24;;;;;;;11.53;7.30;;;;;;;16.70;100.00;100724.57;1419377;91;21419;-93
2023/09/17 00:14:50;;;;;;;15.93;8.10;;;;;;;16.69;100.00;100724.26;1428988;91;22270;-95
2023/09/17 00:17:18;;;;;;;13.93;7.97;;;;;;;16.73;100.00;100722.05;1430232;91;22322;-95
2023/09/17 00:19:44;;;;;;;12.40;7.80;;;;;;;16.77;100.00;100723.37;1428755;91;21412;-87
2023/09/17 00:22:14;;;;;;;9.13;6.90;;;;;;;16.82;100.00;100723.66;1428621;91;21412;-87
2023/09/17 00:24:39;;;;;;;16.17;7.80;;;;;;;16.84;100.00;100719.80;1421705;91;22508;-86
2023/09/17 00:27:05;;;;;;;13.30;8.47;;;;;;;16.85;100.00;100721.45;1425810;91;21367;-85
2023/09/17 00:29:32;;;;;;;14.23;8.63;;;;;;;16.84;100.00;100719.80;1424575;91;21426;-85
2023/09/17 00:31:58;;;;;;;18.43;9.30;;;;;;;16.89;100.00;100708.58;1429472;91;21420;-86
2023/09/17 00:34:25;;;;;;;14.37;8.60;;;;;;;16.93;100.00;100702.35;1428524;91;22434;-94
2023/09/17 00:36:51;;;;;;;17.90;8.27;;;;;;;16.96;100.00;100705.48;1424052;91;22343;-90
2023/09/17 00:39:18;;;;;;;17.97;9.00;;;;;;;16.98;100.00;100707.98;1430190;91;21556;-87
2023/09/17 00:41:44;;;;;;;13.77;7.60;;;;;;;16.98;100.00;100712.00;1424832;91;21457;-89
2023/09/17 00:44:11;;;;;;;17.43;8.13;;;;;;;16.98;100.00;100716.01;1431499;91;21590;-88
2023/09/17 00:46:38;;;;;;;11.20;6.17;;;;;;;16.97;100.00;100713.81;1428585;91;22211;-88
2023/09/17 00:49:12;;;;;;;11.47;6.53;;;;;;;17.00;100.00;100712.11;1431934;91;22855;-87
2023/09/17 00:51:34;;;;;;;11.93;6.53;;;;;;;17.01;100.00;100709.78;1425981;91;22080;-87
2023/09/17 00:54:01;;;;;;;9.00;5.70;;;;;;;17.03;100.00;100710.44;1426476;91;22351;-88
2023/09/17 00:56:27;;;;;;;9.43;6.13;;;;;;;17.05;100.00;100707.05;1427834;91;21537;-87
2023/09/17 00:58:54;;;;;;;9.13;6.07;;;;;;;17.08;100.00;100708.02;1427964;91;21471;-87
2023/09/17 01:01:20;;;;;;;11.67;6.40;;;;;;;17.11;100.00;100711.66;1425936;91;21360;-86
2023/09/17 01:03:47;;;;;;;9.60;7.30;;;;;;;17.12;100.00;100707.17;1428453;91;21501;-87
2023/09/17 01:06:14;;;;;;;11.87;8.07;;;;;;;17.13;100.00;100713.66;1405396;91;21634;-87
2023/09/17 01:08:41;;;;;;;19.90;8.50;;;;;;;17.18;100.00;100717.64;1425684;91;21493;-86
2023/09/17 01:11:09;;;;;;;16.27;8.50;;;;;;;17.19;100.00;100712.61;1421265;91;21476;-91
2023/09/17 01:13:40;;;;;;;15.03;8.73;;;;;;;17.21;100.00;100710.59;1426511;91;21265;-93
2023/09/17 01:16:05;;;;;;;10.67;7.80;;;;;;;17.22;100.00;100705.55;1426103;91;21501;-92
2023/09/17 01:18:34;;;;;;;16.77;8.90;;;;;;;17.23;100.00;100701.85;1425148;91;21433;-92
2023/09/17 01:21:19;;;;;;;13.30;8.50;;;;;;;17.25;100.00;100703.84;1426785;91;22411;-92
2023/09/17 01:24:07;;;;;;;19.40;8.83;;;;;;;17.28;100.00;100700.80;1404114;91;21471;-91
2023/09/17 01:26:36;;;;;;;15.43;8.90;;;;;;;17.29;100.00;100705.13;1427130;91;21361;-89
2023/09/17 01:29:04;;;;;;;13.27;7.93;;;;;;;17.30;100.00;100698.77;1421934;91;21338;-89
2023/09/17 01:31:31;;;;;;;18.93;8.53;;;;;;;17.30;100.00;100698.77;1428679;91;22255;-91
2023/09/17 01:33:57;;;;;;;16.20;8.70;;;;;;;17.31;100.00;100704.44;1420823;91;22551;-90
2023/09/17 01:36:33;;;;;;;14.27;7.57;;;;;;;17.32;100.00;100718.13;1425852;91;22293;-88
2023/09/17 01:39:04;;;;;;;19.97;8.63;;;;;;;17.30;100.00;100719.66;1426579;91;21486;-88
2023/09/17 01:41:34;;;;;;;13.47;7.80;;;;;;;17.30;100.00;100711.64;1429508;91;21360;-91
2023/09/17 01:44:03;;;;;;;12.80;7.77;;;;;;;17.33;100.00;100710.44;1428014;91;21472;-89
2023/09/17 01:46:33;;;;;;;10.23;7.53;;;;;;;17.37;100.00;100709.05;1425131;91;21367;-91
2023/09/17 01:49:00;;;;;;;15.30;6.80;;;;;;;17.36;100.00;100705.55;1429915;91;21472;-91
2023/09/17 01:51:29;;;;;;;11.10;6.70;;;;;;;17.37;100.00;100713.88;1428801;91;22380;-91
2023/09/17 01:53:56;;;;;;;7.67;6.53;;;;;;;17.38;100.00;100713.40;1403828;91;21604;-87
2023/09/17 01:56:22;;;;;;;17.60;8.47;;;;;;;17.40;100.00;100707.33;1420402;91;21382;-90
2023/09/17 01:58:49;;;;;;;11.60;8.57;;;;;;;17.44;100.00;100705.96;1427463;91;21367;-89
2023/09/17 02:01:16;;;;;;;16.23;7.60;;;;;;;17.46;100.00;100699.89;1422661;91;22448;-91
2023/09/17 02:03:43;;;;;;;14.10;8.27;;;;;;;17.43;100.00;100700.27;1425050;91;21462;-90
2023/09/17 02:06:10;;;;;;;14.17;7.60;;;;;;;17.35;100.00;100691.86;1428016;91;21381;-91
2023/09/17 02:08:37;;;;;;;13.67;6.80;;;;;;;17.33;100.00;100703.24;1424479;91;21872;-90
2023/09/17 02:11:06;;;;;;;21.53;8.10;;;;;;;17.35;100.00;100707.08;1425743;91;21404;-92
2023/09/17 02:13:32;;;;;;;19.23;8.63;;;;;;;17.35;100.00;100703.06;1430243;91;21556;-87
2023/09/17 02:15:59;;;;;;;15.27;8.90;;;;;;;17.33;100.00;100705.09;1426522;91;22317;-89
2023/09/17 02:18:26;;;;;;;14.90;9.23;;;;;;;17.31;100.00;100703.10;1427884;91;21578;-89
2023/09/17 02:20:53;;;;;;;12.97;8.80;;;;;;;17.25;100.00;100702.50;1424774;91;21389;-91
2023/09/17 02:23:19;;;;;;;12.77;8.33;;;;;;;17.21;100.00;100699.89;1427463;91;21595;-91
2023/09/17 02:25:46;;;;;;;16.60;9.13;;;;;;;17.21;100.00;100699.38;1423935;91;21405;-91
2023/09/17 02:28:13;;;;;;;17.27;9.30;;;;;;;17.23;100.00;100701.85;1428796;91;21301;-87
2023/09/17 02:30:39;;;;;;;13.93;8.47;;;;;;;17.26;100.00;100701.48;1429309;91;21449;-88
2023/09/17 02:33:06;;;;;;;15.47;8.37;;;;;;;17.29;100.00;100701.11;1405342;91;21412;-89
2023/09/17 02:35:34;;;;;;;10.70;8.27;;;;;;;17.33;100.00;100704.58;1426526;91;21582;-89
2023/09/17 02:38:01;;;;;;;15.80;7.33;;;;;;;17.38;100.00;100697.34;1432106;91;21570;-89
2023/09/17 02:40:27;;;;;;;11.65;8.10;;;;;;;17.40;100.00;100699.82;1430025;91;21590;-90
2023/09/17 02:42:53;;;;;;;14.27;9.20;;;;;;;17.42;100.00;100706.65;1428767;91;21383;-90
2023/09/17 02:45:20;;;;;;;8.93;8.03;;;;;;;17.41;100.00;100706.34;1427070;91;21463;-89
2023/09/17 02:47:46;;;;;;;16.93;10.23;;;;;;;17.43;100.00;100700.78;1422709;91;21544;-88
2023/09/17 02:50:13;;;;;;;15.40;9.13;;;;;;;17.46;100.00;100704.42;1423593;91;21368;-89
2023/09/17 02:52:39;;;;;;;16.45;9.13;;;;;;;17.43;100.00;100709.64;1425432;91;21390;-89
2023/09/17 02:55:08;;;;;;;18.03;9.10;;;;;;;17.43;100.00;100703.45;1404743;91;21471;-90
2023/09/17 02:57:34;;;;;;;22.62;9.13;;;;;;;17.42;100.00;100705.31;1405561;91;21597;-86
2023/09/17 03:00:04;;;;;;;12.07;7.90;;;;;;;17.45;100.00;100704.94;1423828;91;22277;-86
2023/09/17 03:02:30;;;;;;;13.77;8.80;;;;;;;17.46;100.00;100713.28;1425697;91;21352;-86
2023/09/17 03:04:58;;;;;;;9.90;7.50;;;;;;;17.47;100.00;100712.28;1427382;91;21626;-86
2023/09/17 03:07:25;;;;;;;14.93;8.57;;;;;;;17.46;100.00;100712.45;1426771;91;22263;-86
2023/09/17 03:09:52;;;;;;;10.60;7.90;;;;;;;17.45;100.00;100712.97;1428832;91;21567;-86
2023/09/17 03:12:18;;;;;;;11.37;7.60;;;;;;;17.45;100.00;100708.95;1424122;91;21450;-85
2023/09/17 03:14:45;;;;;;;9.07;7.53;;;;;;;17.47;100.00;100706.10;1428646;91;21509;-86
2023/09/17 03:17:12;;;;;;;14.65;8.33;;;;;;;17.51;100.00;100709.55;1430529;91;22188;-86
2023/09/17 03:19:38;;;;;;;13.10;8.00;;;;;;;17.54;100.00;100707.83;1426224;91;21558;-86
2023/09/17 03:22:05;;;;;;;13.88;9.30;;;;;;;17.52;100.00;100704.53;1430678;91;21865;-86
2023/09/17 03:24:31;;;;;;;13.08;8.43;;;;;;;17.48;100.00;100703.23;1423629;91;21589;-85
2023/09/17 03:26:58;;;;;;;12.53;7.87;;;;;;;17.45;100.00;100702.27;1423838;91;21470;-87
2023/09/17 03:29:24;;;;;;;17.93;8.20;;;;;;;17.42;100.00;100709.33;1426219;91;21368;-85
2023/09/17 03:31:51;;;;;;;13.95;7.35;;;;;;;17.36;100.00;100699.37;1428611;91;21573;-85
2023/09/17 03:34:17;;;;;;;14.30;8.17;;;;;;;17.33;100.00;100716.61;1427624;91;21346;-86
2023/09/17 03:36:43;;;;;;;16.50;8.73;;;;;;;17.35;100.00;100718.61;1425073;91;22381;-86
2023/09/17 03:39:10;;;;;;;14.03;7.57;;;;;;;17.36;100.00;100722.11;1429184;91;22270;-86
2023/09/17 03:41:40;;;;;;;11.43;7.93;;;;;;;17.37;100.00;100723.76;1426086;91;21563;-86
2023/09/17 03:44:05;;;;;;;15.65;8.85;;;;;;;17.41;100.00;100726.41;1427687;91;21633;-86
2023/09/17 03:46:32;;;;;;;12.05;9.55;;;;;;;17.44;100.00;100723.36;1424346;91;21352;-85
2023/09/17 03:48:59;;;;;;;16.67;8.70;;;;;;;17.45;100.00;100726.34;1427414;91;22203;-87
2023/09/17 03:51:28;;;;;;;12.80;8.07;;;;;;;17.51;100.00;100736.30;1406241;91;21404;-88
2023/09/17 03:53:55;;;;;;;10.73;8.33;;;;;;;17.57;100.00;100727.52;1421635;91;22403;-89
2023/09/17 03:56:22;;;;;;;21.85;9.60;;;;;;;17.62;100.00;100721.63;1405281;91;21541;-88
2023/09/17 03:58:48;;;;;;;9.13;8.23;;;;;;;17.65;100.00;100729.80;1432170;91;21515;-89
2023/09/17 04:01:15;;;;;;;12.33;9.30;;;;;;;17.63;100.00;100723.79;1425174;91;21442;-88
2023/09/17 04:03:41;;;;;;;9.80;7.28;;;;;;;17.63;100.00;100727.29;1424595;91;21419;-88
2023/09/17 04:06:07;;;;;;;12.33;8.27;;;;;;;17.64;100.00;100722.80;1425648;91;21522;-86
2023/09/17 04:08:34;;;;;;;11.00;7.03;;;;;;;17.67;100.00;100723.24;1410004;91;21494;-89
2023/09/17 04:11:00;;;;;;;10.48;7.37;;;;;;;17.69;100.00;100725.72;1428141;91;22470;-88
2023/09/17 04:13:29;;;;;;;9.77;7.37;;;;;;;17.68;100.00;100726.23;1407155;91;21456;-88
2023/09/17 04:15:55;;;;;;;9.35;7.60;;;;;;;17.72;100.00;100729.35;1430058;91;21537;-88
2023/09/17 04:18:21;;;;;;;11.73;7.35;;;;;;;17.74;100.00;100725.48;1426908;91;22248;-88
2023/09/17 04:20:49;;;;;;;11.75;8.18;;;;;;;17.74;100.00;100724.66;1405244;91;21531;-90
2023/09/17 04:23:16;;;;;;;11.03;7.17;;;;;;;17.75;100.00;100727.16;1424625;91;21383;-89
2023/09/17 04:25:44;;;;;;;9.70;8.65;;;;;;;17.78;100.00;100728.63;1431567;91;21419;-90
2023/09/17 04:28:10;;;;;;;8.85;6.85;;;;;;;17.80;100.00;100731.96;1430135;91;21441;-86
2023/09/17 04:30:36;;;;;;;10.45;7.92;;;;;;;17.79;100.00;100735.16;1428748;91;21375;-89
2023/09/17 04:33:03;;;;;;;14.10;6.95;;;;;;;17.80;100.00;100742.16;1421084;91;21308;-82
2023/09/17 04:35:30;;;;;;;15.05;8.33;;;;;;;17.83;100.00;100748.98;1426168;91;21538;-83
2023/09/17 04:37:56;;;;;;;9.78;7.35;;;;;;;17.85;100.00;100745.63;1428251;91;21465;-87
2023/09/17 04:40:25;;;;;;;10.82;8.05;;;;;;;17.89;100.00;100745.55;1429631;91;21530;-86
2023/09/17 04:42:52;;;;;;;12.23;7.53;;;;;;;17.90;100.00;100746.41;1421687;91;21548;-86
2023/09/17 04:45:34;;;;;;;10.85;7.33;;;;;;;17.96;100.00;100754.52;1422395;91;22388;-83
2023/09/17 04:48:01;;;;;;;9.35;7.85;;;;;;;18.01;100.00;100751.25;1425303;91;21405;-85
2023/09/17 04:50:28;;;;;;;13.03;7.83;;;;;;;18.06;100.00;100749.36;1424212;91;21456;-85
2023/09/17 04:52:55;;;;;;;9.33;7.90;;;;;;;18.11;100.00;100750.97;1421879;91;21554;-85
2023/09/17 04:55:22;;;;;;;12.30;8.13;;;;;;;18.12;100.00;100755.30;1425399;91;21360;-85
2023/09/17 04:57:48;;;;;;;12.78;7.83;;;;;;;18.13;100.00;100755.13;1425563;91;21383;-86
2023/09/17 05:00:15;;;;;;;9.48;7.08;;;;;;;18.15;100.00;100754.92;1427097;91;21412;-85
2023/09/17 05:02:43;;;;;;;10.80;6.97;;;;;;;18.16;100.00;100752.58;1422988;91;22042;-85
2023/09/17 05:05:10;;;;;;;8.05;7.20;;;;;;;18.17;100.00;100758.25;1406428;91;21596;-85
2023/09/17 05:07:39;;;;;;;11.45;7.92;;;;;;;18.19;100.00;100760.23;1428318;91;21419;-86
2023/09/17 05:10:07;;;;;;;16.15;7.37;;;;;;;18.21;100.00;100764.39;1421422;91;21390;-85
2023/09/17 05:12:34;;;;;;;20.17;8.58;;;;;;;18.26;100.00;100766.48;1427256;91;21390;-83
2023/09/17 05:15:00;;;;;;;10.88;7.30;;;;;;;18.34;100.00;100770.38;1430106;91;21575;-85
2023/09/17 05:17:27;;;;;;;10.50;6.78;;;;;;;18.38;100.00;100768.97;1428550;91;21383;-84
2023/09/17 05:19:53;;;;;;;10.25;7.50;;;;;;;18.42;100.00;100770.27;1428885;91;21552;-85
2023/09/17 05:22:19;;;;;;;14.53;8.80;;;;;;;18.49;100.00;100769.81;1432637;91;21456;-87
2023/09/17 05:24:46;;;;;;;16.52;7.35;;;;;;;18.58;100.00;100777.73;1421410;91;21604;-89
2023/09/17 05:27:13;;;;;;;14.98;8.23;;;;;;;18.62;100.00;100777.69;1425187;91;21596;-89
2023/09/17 05:29:41;;;;;;;13.78;8.65;;;;;;;18.66;100.00;100777.09;1423181;91;21404;-90
2023/09/17 05:32:07;;;;;;;10.13;8.50;;;;;;;18.72;100.00;100778.17;1422843;91;21330;-88
2023/09/17 05:34:33;;;;;;;12.13;7.22;;;;;;;18.76;100.00;100786.20;1430195;91;21626;-89
2023/09/17 05:37:00;;;;;;;9.95;8.48;;;;;;;18.80;100.00;100783.44;1429272;91;22301;-88
2023/09/17 05:39:26;;;;;;;9.70;6.85;;;;;;;18.86;100.00;100782.66;1430441;91;22240;-89
2023/09/17 05:41:55;;;;;;;15.95;7.35;;;;;;;18.90;100.00;100791.14;1429986;91;21389;-88
2023/09/17 05:44:22;;;;;;;14.50;8.85;;;;;;;18.94;100.00;100790.58;1425812;91;21405;-87
2023/09/17 05:46:49;;;;;;;15.90;7.65;;;;;;;19.02;100.00;100795.47;1429207;91;21367;-85
2023/09/17 05:49:15;;;;;;;8.65;7.45;;;;;;;19.08;100.00;100791.52;1425276;91;22566;-85
2023/09/17 05:51:42;;;;;;;7.75;6.95;;;;;;;19.21;100.00;100796.66;1426959;91;22447;-83
2023/09/17 05:54:08;;;;;;;10.80;7.60;;;;;;;19.29;100.00;100794.66;1430627;91;21526;-82
2023/09/17 05:56:35;;;;;;;9.15;7.12;;;;;;;19.38;100.00;100793.47;1432888;91;21456;-84
2023/09/17 05:59:01;;;;;;;8.13;7.30;;;;;;;19.47;100.00;100791.46;1434291;91;21464;-85
2023/09/17 06:01:28;;;;;;;7.95;6.80;;;;;;;19.59;100.00;100785.02;1430322;91;21549;-85
2023/09/17 06:03:54;;;;;;;14.10;7.92;;;;;;;19.72;100.00;100789.16;1425204;91;21419;-84
2023/09/17 06:06:21;;;;;;;12.05;8.85;;;;;;;19.83;100.00;100781.89;1407647;91;21607;-87
2023/09/17 06:08:50;;;;;;;13.15;8.95;;;;;;;19.92;100.00;100784.41;1424632;91;21323;-86
2023/09/17 06:11:15;;;;;;;15.08;8.80;;;;;;;20.00;100.00;100789.61;1425319;91;21537;-86
2023/09/17 06:13:42;;;;;;;13.58;8.85;;;;;;;20.14;100.00;100791.31;1428295;91;21619;-85
2023/09/17 06:16:08;;;;;;;14.65;8.35;;;;;;;20.26;100.00;100795.07;1435139;91;21426;-85
2023/09/17 06:18:35;;;;;;;13.32;8.45;;;;;;;20.36;100.00;100792.50;1427810;91;21542;-88
2023/09/17 06:21:03;;;;;;;12.70;7.90;;;;;;;20.46;100.00;100790.27;1423594;91;21464;-88
2023/09/17 06:23:29;;;;;;;15.65;9.78;;;;;;;20.64;100.00;100797.25;1422216;91;22247;-90
2023/09/17 06:25:56;;;;;;;14.10;9.35;;;;;;;20.79;100.00;100798.92;1422422;91;21577;-89
2023/09/17 06:28:24;;;;;;;13.20;10.35;;;;;;;20.95;100.00;100803.91;1424503;91;22263;-90
2023/09/17 06:30:50;;;;;;;13.53;9.90;;;;;;;21.06;100.00;100800.59;1430591;91;21345;-88
2023/09/17 06:33:17;;;;;;;11.63;8.15;;;;;;;21.21;100.00;100809.80;1429583;91;21369;-88
2023/09/17 06:35:43;;;;;;;11.03;9.20;;;;;;;21.37;100.00;100809.90;1422022;91;21345;-88
2023/09/17 06:38:22;;;;;;;12.13;10.05;;;;;;;21.55;100.00;100816.82;1421458;91;21581;-88
2023/09/17 06:40:48;;;;;;;14.35;11.15;;;;;;;21.60;100.00;100806.75;1424557;91;21640;-87
2023/09/17 06:43:15;;;;;;;17.52;11.28;;;;;;;21.53;100.00;100815.38;1499599;91;21516;-80
2023/09/17 06:45:44;;;;;;;14.23;10.63;;;;;;;;;;1377467;91;21706;-79
2023/09/17 06:48:10;;;;;;;12.82;11.25;;;;;;;21.42;100.00;100812.80;1350987;92;22094;-78
2023/09/17 06:50:36;;;;;;;14.65;11.33;;;;;;;21.35;100.00;100820.04;1350873;92;21458;-79
2023/09/17 06:53:04;;;;;;;14.30;10.72;;;;;;;21.31;100.00;100810.70;1351405;92;21294;-78
2023/09/17 06:55:30;;;;;;;10.58;8.93;;;;;;;21.32;100.00;100822.63;1409926;92;21951;-79
2023/09/17 06:57:56;;;;;;;13.05;9.40;;;;;;;21.31;100.00;100819.60;1399240;92;21519;-79
2023/09/17 07:00:22;;;;;;;11.38;10.18;;;;;;;21.34;100.00;100821.05;1399776;92;21404;-79
2023/09/17 07:02:48;;;;;;;12.10;10.00;;;;;;;21.36;100.00;100821.69;1418086;92;22954;-78
2023/09/17 07:05:15;;;;;;;16.93;11.68;;;;;;;21.37;100.00;100820.67;1395344;92;21442;-79
2023/09/17 07:07:42;;;;;;;14.50;10.32;;;;;;;21.42;100.00;100828.12;1420699;92;22314;-78
2023/09/17 07:10:08;;;;;;;11.00;9.80;;;;;;;21.40;100.00;100833.70;1418207;92;22314;-78
2023/09/17 07:12:37;;;;;;;22.85;11.25;;;;;;;21.43;100.00;100826.56;1425741;92;22434;-77
2023/09/17 07:15:05;;;;;;;11.30;10.08;;;;;;;21.46;100.00;100824.79;1419990;91;21686;-78
2023/09/17 07:17:31;;;;;;;10.82;9.70;;;;;;;21.48;100.00;100835.37;1347957;92;21347;-79
2023/09/17 07:19:58;;;;;;;15.05;10.90;;;;;;;21.45;100.00;100835.78;1351674;92;21250;-78
2023/09/17 07:22:24;;;;;;;12.50;10.28;;;;;;;21.41;100.00;100835.38;1350948;92;21280;-78
2023/09/17 07:24:55;;;;;;;12.90;11.25;;;;;;;21.43;100.00;100834.63;1350581;92;21301;-78
2023/09/17 07:27:18;;;;;;;11.18;9.60;;;;;;;21.44;100.00;100837.66;1491334;92;21474;-78
2023/09/17 07:29:45;;;;;;;16.55;10.38;;;;;;;21.45;100.00;100847.91;1499752;92;22124;-79
2023/09/17 07:32:12;;;;;;;12.18;9.95;;;;;;;21.42;100.00;100855.05;1349937;92;21236;-79
2023/09/17 07:34:38;;;;;;;13.28;10.20;;;;;;;21.37;100.00;100859.70;1385969;92;21567;-80
2023/09/17 07:37:04;;;;;;;17.45;11.43;;;;;;;21.37;100.00;100861.88;1420180;92;22322;-79
2023/09/17 07:39:30;;;;;;;20.05;11.18;;;;;;;21.31;100.00;100861.86;1423774;92;21390;-79
2023/09/17 07:41:57;;;;;;;17.12;11.08;;;;;;;21.27;100.00;100857.94;1420259;92;21367;-79
2023/09/17 07:44:24;;;;;;;14.10;10.75;;;;;;;21.26;100.00;100861.64;1419612;92;21398;-79
2023/09/17 07:46:50;;;;;;;12.15;10.50;;;;;;;21.28;100.00;100856.89;1417825;92;21597;-79
2023/09/17 07:49:17;;;;;;;18.95;11.00;;;;;;;21.32;100.00;100854.08;1418118;91;21486;-79
2023/09/17 07:51:43;;;;;;;17.57;11.97;;;;;;;21.35;100.00;100861.77;1420601;92;21486;-79
2023/09/17 07:54:10;;;;;;;16.75;12.55;;;;;;;21.38;100.00;100865.42;1420186;92;22661;-78
2023/09/17 07:56:36;;;;;;;12.37;11.15;;;;;;;21.42;100.00;100863.95;1415494;91;21360;-78
2023/09/17 07:59:03;;;;;;;15.18;12.03;;;;;;;21.43;100.00;100875.02;1419158;92;21516;-78
2023/09/17 08:01:30;;;;;;;15.23;11.53;;;;;;;21.35;100.00;100870.67;1422748;92;21323;-78
2023/09/17 08:03:56;;;;;;;13.28;11.35;;;;;;;21.36;100.00;100872.84;1420603;92;21516;-77
2023/09/17 08:06:25;;;;;;;11.97;10.75;;;;;;;21.40;100.00;100872.75;1420598;92;21443;-78
2023/09/17 08:08:51;;;;;;;13.98;11.15;;;;;;;21.46;100.00;100871.91;1417424;91;22411;-78
2023/09/17 08:11:19;;;;;;;13.90;11.25;;;;;;;21.53;100.00;100878.13;1417285;92;21537;-77
2023/09/17 08:13:47;;;;;;;16.30;12.85;;;;;;;21.60;100.00;100876.25;1416431;92;21376;-78
2023/09/17 08:16:13;;;;;;;13.50;12.10;;;;;;;21.65;100.00;100884.23;1399164;92;21463;-77
2023/09/17 08:18:39;;;;;;;14.95;12.05;;;;;;;21.62;100.00;100880.91;1414983;91;21394;-77
2023/09/17 08:21:05;;;;;;;14.75;11.65;;;;;;;21.65;100.00;100886.41;1418583;92;22314;-78
2023/09/17 08:23:32;;;;;;;18.48;12.20;;;;;;;21.61;100.00;100880.62;1418434;92;21383;-79
2023/09/17 08:25:59;;;;;;;15.15;11.60;;;;;;;21.62;100.00;100888.99;1418484;92;21649;-78
2023/09/17 08:28:26;;;;;;;12.47;10.98;;;;;;;21.61;100.00;100895.43;1426105;92;21360;-78
2023/09/17 08:30:52;;;;;;;16.20;12.00;;;;;;;21.61;100.00;100887.34;1421650;92;21361;-78
2023/09/17 08:33:18;;;;;;;12.73;11.35;;;;;;;21.60;100.00;100891.06;1417865;92;21870;-78
2023/09/17 08:35:44;;;;;;;14.95;12.95;;;;;;;21.60;100.00;100891.06;1419886;92;21531;-79
2023/09/17 08:38:10;;;;;;;15.38;12.78;;;;;;;21.61;100.00;100895.43;1421611;92;22395;-79
2023/09/17 08:40:38;;;;;;;16.27;12.05;;;;;;;21.63;100.00;100898.72;1421705;92;22337;-79
2023/09/17 08:43:04;;;;;;;16.85;13.00;;;;;;;21.70;100.00;100891.17;1349145;92;21472;-79
2023/09/17 08:45:31;;;;;;;13.88;12.47;;;;;;;21.69;100.00;100888.97;1330081;93;21508;-78
2023/09/17 08:47:58;;;;;;;15.00;13.35;;;;;;;21.73;100.00;100894.27;1350031;92;21258;-79
2023/09/17 08:50:27;;;;;;;13.75;11.80;;;;;;;21.74;100.00;100893.75;1349966;92;21399;-79
2023/09/17 08:52:59;;;;;;;16.80;14.33;;;;;;;21.70;100.00;100892.52;1347645;92;22175;-78
2023/09/17 08:55:25;;;;;;;15.40;13.78;;;;;;;21.68;100.00;100894.59;1493821;91;22242;-79
2023/09/17 08:58:08;;;;;;;19.67;13.25;;;;;;;21.63;100.00;100891.98;1350830;92;21255;-78
2023/09/17 09:00:37;;;;;;;19.17;13.28;;;;;;;21.56;100.00;100887.66;1499390;92;21385;-78
2023/09/17 09:03:07;;;;;;;14.53;12.35;;;;;;;21.52;100.00;100896.69;1347532;92;22273;-78
2023/09/17 09:05:39;;;;;;;16.80;13.03;;;;;;;21.42;100.00;100894.92;1346676;92;21391;-78
2023/09/17 09:08:04;;;;;;;15.68;12.75;;;;;;;21.34;100.00;100892.39;1380631;92;22492;-79
2023/09/17 09:10:31;;;;;;;15.10;12.18;;;;;;;21.30;100.00;100890.64;1348446;92;21340;-79
2023/09/17 09:12:59;;;;;;;14.63;13.13;;;;;;;21.27;100.00;100895.63;1350647;92;21273;-78
2023/09/17 09:15:27;;;;;;;14.53;13.13;;;;;;;21.25;100.00;100892.30;1348662;92;21266;-78
2023/09/17 09:17:55;;;;;;;16.52;14.83;;;;;;;21.22;100.00;100895.41;1349336;92;22123;-78
2023/09/17 09:20:21;;;;;;;15.23;13.60;;;;;;;21.18;100.00;100889.61;1348700;92;21434;-80
2023/09/17 09:22:48;;;;;;;15.05;13.32;;;;;;;21.12;100.00;100885.88;1350159;92;22107;-78
2023/09/17 09:25:15;;;;;;;14.85;13.28;;;;;;;21.08;100.00;100887.31;1350959;92;21531;-79
2023/09/17 09:27:43;;;;;;;18.50;13.58;;;;;;;21.11;100.00;100884.20;1354392;92;21273;-78
2023/09/17 09:30:12;;;;;;;15.45;13.48;;;;;;;21.12;100.00;100881.02;1395553;92;21612;-78
2023/09/17 09:32:42;;;;;;;18.00;14.35;;;;;;;21.16;100.00;100880.38;1346715;92;22056;-78
2023/09/17 09:35:09;;;;;;;15.70;14.05;;;;;;;21.17;100.00;100882.03;1348633;92;21310;-78
2023/09/17 09:37:36;;;;;;;16.23;13.55;;;;;;;21.21;100.00;100881.64;1329443;93;21221;-79
2023/09/17 09:40:04;;;;;;;16.95;15.03;;;;;;;21.19;100.00;100884.01;1349180;91;21287;-78
2023/09/17 09:42:31;;;;;;;15.95;14.38;;;;;;;21.17;100.00;100883.38;1348232;92;22145;-78
2023/09/17 09:44:58;;;;;;;19.55;15.13;;;;;;;21.19;100.00;100877.28;1350304;92;21301;-79
2023/09/17 09:47:24;;;;;;;13.93;12.53;;;;;;;21.24;100.00;100882.58;1348989;91;21265;-78
2023/09/17 09:49:50;;;;;;;15.72;13.32;;;;;;;21.27;100.00;100880.81;1350542;92;21412;-79
2023/09/17 09:52:18;;;;;;;18.30;14.75;;;;;;;21.26;100.00;100875.95;1350452;92;21251;-78
2023/09/17 09:54:46;;;;;;;13.78;12.35;;;;;;;21.31;100.00;100879.35;1349722;92;22123;-78
2023/09/17 09:57:18;;;;;;;22.58;13.40;;;;;;;21.35;100.00;100876.05;1348433;92;21272;-77
2023/09/17 09:59:47;;;;;;;18.35;14.63;;;;;;;21.38;100.00;100882.92;1499849;92;21296;-79
2023/09/17 10:02:17;;;;;;;16.20;14.47;;;;;;;21.42;100.00;100879.28;1385738;92;21853;-79
2023/09/17 10:04:49;;;;;;;16.00;14.45;;;;;;;21.53;100.00;100890.25;1359171;92;21700;-78
2023/09/17 10:07:17;;;;;;;14.38;13.00;;;;;;;21.63;100.00;100888.47;1414595;92;21598;-78
2023/09/17 10:09:44;;;;;;;14.43;12.93;;;;;;;21.71;100.00;100890.13;1348966;92;22087;-78
2023/09/17 10:12:10;;;;;;;18.92;13.50;;;;;;;21.83;100.00;100896.52;1350415;92;21416;-78
2023/09/17 10:14:38;;;;;;;16.57;14.90;;;;;;;21.98;100.00;100893.09;1356090;92;21287;-78
2023/09/17 10:17:14;;;;;;;17.12;14.35;;;;;;;22.13;100.00;100894.18;1499839;92;21370;-79
2023/09/17 10:19:41;;;;;;;17.48;15.00;;;;;;;22.25;100.00;100898.42;1349705;92;22269;-78
2023/09/17 10:22:10;;;;;;;17.20;15.13;;;;;;;22.33;100.00;100890.09;1329141;93;21346;-78
2023/09/17 10:24:42;;;;;;;20.97;15.13;;;;;;;22.42;100.00;100890.16;1348646;92;22232;-79
2023/09/17 10:27:09;;;;;;;17.70;15.10;;;;;;;22.49;100.00;100884.72;1422824;92;21360;-78
2023/09/17 10:29:38;;;;;;;15.85;14.15;;;;;;;22.61;100.00;100887.56;1420537;92;22381;-78
2023/09/17 10:32:06;;;;;;;20.08;14.87;;;;;;;22.71;100.00;100883.89;1420515;92;21562;-79
2023/09/17 10:34:35;;;;;;;18.82;14.23;;;;;;;22.84;100.00;100882.44;1379374;92;21457;-78
2023/09/17 10:37:03;;;;;;;16.55;14.85;;;;;;;22.96;100.00;100878.05;1426832;92;22544;-79
2023/09/17 10:39:31;;;;;;;17.62;15.80;;;;;;;23.08;100.00;100879.52;1421227;92;21537;-79
2023/09/17 10:42:00;;;;;;;20.10;16.48;;;;;;;23.07;100.00;100877.02;1385709;92;21412;-77
2023/09/17 10:44:28;;;;;;;21.57;15.83;;;;;;;23.09;100.00;100870.89;1397590;92;21449;-78
2023/09/17 10:47:01;;;;;;;18.50;14.75;;;;;;;23.09;100.00;100880.34;1418908;92;21457;-79
2023/09/17 10:49:31;;;;;;;17.32;12.90;;;;;;;23.08;100.00;100878.70;1469253;92;21413;-78
2023/09/17 10:51:58;;;;;;;16.05;13.68;;;;;;;23.09;100.00;100881.69;1347012;92;21272;-80
2023/09/17 10:54:24;;;;;;;17.32;14.15;;;;;;;23.14;100.00;100877.81;1348856;91;21236;-79
2023/09/17 10:56:52;;;;;;;15.18;13.62;;;;;;;23.20;100.00;100880.98;1401819;92;21427;-79
2023/09/17 10:59:20;;;;;;;14.23;12.60;;;;;;;23.25;100.00;100877.60;1418518;92;21523;-78
2023/09/17 11:01:47;;;;;;;14.70;12.80;;;;;;;23.29;100.00;100877.48;1418420;91;21778;-78
2023/09/17 11:04:19;;;;;;;15.68;14.05;;;;;;;23.33;100.00;100868.73;1411878;92;21560;-79
2023/09/17 11:06:48;;;;;;;16.02;13.15;;;;;;;23.36;100.00;100876.89;1417238;91;21541;-78